Mild Tune — VROS2 — position and weather

sailwx.info

Track history (hours):
 
Tides and Currents Weather Stations Pressure Air Temp Water Temp Dewpoint Dewpoint Depression Visibility Wind Speed Wind Dir Waves Ship Positions

Mild Tune

Last reported at 2018-Apr-24 22:31 UTC. Time now 2018-Apr-25 22:01 UTC.
Position N 31°06' E 122°21'.

Length 147 m; draft 7.6 m.

Type: Cargo ship. MMSI: 477524300.

Date/timePositionNaut miles runAvg speedWind from/ knotsBaromVisibWave heightAir tempDewpointWater temp
2018-Apr-24 22:31N 31°06' E 122°21'114.5
2018-Apr-24 22:25N 31°06' E 122°19'512.7
2018-Apr-24 22:00N 31°09' E 122°14'711.8
2018-Apr-24 21:24N 31°13' E 122°07'410.7
2018-Apr-24 21:00N 31°14' E 122°03'611.3
2018-Apr-24 20:30N 31°15' E 121°56'611.9
2018-Apr-24 19:59N 31°17' E 121°49'3 0.2
2018-Apr-24 03:36N 31°18' E 121°46'212.3
2018-Apr-24 03:25N 31°17' E 121°49'410.8
2018-Apr-24 03:00N 31°16' E 121°54'611.9
2018-Apr-24 02:28N 31°15' E 122°01'710.6
2018-Apr-24 01:49N 31°12' E 122°09'8 6.5
2018-Apr-24 00:34N 31°07' E 122°16'3 6.3
2018-Apr-24 00:10N 31°06' E 122°19'  
2018-Apr-21 02:03N 32°47' E 133°14'4018.4
2018-Apr-20 23:53N 33°02' E 133°57'719.3
2018-Apr-20 23:30N 33°05' E 134°06'917.7
2018-Apr-20 23:00N 33°07' E 134°16'1116.6
2018-Apr-20 22:19N 33°12' E 134°28'516.6
2018-Apr-20 22:00N 33°13' E 134°35'816.8
2018-Apr-20 21:30N 33°14' E 134°44'917.2
2018-Apr-20 21:00N 33°16' E 134°54'917.1
2018-Apr-20 20:30N 33°17' E 135°05'1016.9
2018-Apr-20 19:53N 33°18' E 135°17'716.8
2018-Apr-20 19:27N 33°20' E 135°26'5417.0
2018-Apr-20 16:15N 33°45' E 136°23'718.3
2018-Apr-20 15:53N 33°50' E 136°29'1517.7
2018-Apr-20 15:00N 34°01' E 136°42'917.5
2018-Apr-20 14:30N 34°06' E 136°51'917.3
2018-Apr-20 14:00N 34°11' E 136°59'1017.1
2018-Apr-20 13:25N 34°16' E 137°09'817.3
2018-Apr-20 12:57N 34°19' E 137°18'1017.0
2018-Apr-20 12:21N 34°22' E 137°30'1316.8
2018-Apr-20 11:36N 34°26' E 137°45'317.2
2018-Apr-20 11:27N 34°26' E 137°48'917.0
2018-Apr-20 10:56N 34°28' E 137°59'716.6
2018-Apr-20 10:30N 34°29' E 138°07'815.7
2018-Apr-20 10:00N 34°32' E 138°16'816.5
2018-Apr-20 09:30N 34°39' E 138°20'816.7
2018-Apr-20 09:01N 34°47' E 138°25'816.9
2018-Apr-20 08:30N 34°54' E 138°30'815.1
2018-Apr-20 08:00N 35°01' E 138°33'2 3.7
2018-Apr-20 07:30N 35°02' E 138°30'0 0.0
2018-Apr-20 07:00N 35°02' E 138°30'0 0.0
2018-Apr-20 06:30N 35°02' E 138°30'0 0.0
2018-Apr-20 06:00N 35°02' E 138°30'0 0.0
2018-Apr-20 05:30N 35°02' E 138°30'0 0.0
2018-Apr-20 05:00N 35°02' E 138°30'0 0.0
2018-Apr-20 04:27N 35°02' E 138°30'0 0.0
2018-Apr-20 04:00N 35°02' E 138°30'0 0.0
2018-Apr-20 03:30N 35°02' E 138°30'1 1.1
2018-Apr-20 03:00N 35°02' E 138°31'3 7.0
2018-Apr-20 02:30N 34°59' E 138°34'816.9
2018-Apr-20 02:00N 34°52' E 138°29'917.2
2018-Apr-20 01:30N 34°44' E 138°24'917.0
2018-Apr-20 01:00N 34°36' E 138°20'915.9
2018-Apr-20 00:25N 34°31' E 138°10'717.4
2018-Apr-20 00:00N 34°31' E 138°02'917.8
2018-Apr-19 23:29N 34°31' E 137°50'1017.9
2018-Apr-19 22:56N 34°31' E 137°38'817.5
2018-Apr-19 22:30N 34°30' E 137°29'917.4
2018-Apr-19 21:59N 34°30' E 137°18'1316.6
2018-Apr-19 21:11N 34°31' E 137°02'812.9
2018-Apr-19 20:36N 34°37' E 136°56'215.3
2018-Apr-19 20:28N 34°38' E 136°54'613.7
2018-Apr-19 20:00N 34°43' E 136°49'611.4
2018-Apr-19 19:30N 34°48' E 136°46'612.8
2018-Apr-19 19:00N 34°54' E 136°46'510.6
2018-Apr-19 18:30N 34°59' E 136°47'2 4.1
2018-Apr-19 17:58N 35°01' E 136°48'0 0.1
2018-Apr-19 17:28N 35°01' E 136°48'0 0.0
2018-Apr-19 16:58N 35°01' E 136°48'0 0.0
2018-Apr-19 16:28N 35°01' E 136°48'0 0.0
2018-Apr-19 15:58N 35°01' E 136°48'0 0.0
2018-Apr-19 15:28N 35°01' E 136°48'0 0.0
2018-Apr-19 14:58N 35°01' E 136°48'0 0.0
2018-Apr-19 14:28N 35°01' E 136°48'0 0.0
2018-Apr-19 13:58N 35°01' E 136°48'0 0.0
2018-Apr-19 13:28N 35°01' E 136°48'0 0.0
2018-Apr-19 12:58N 35°01' E 136°48'0 0.0
2018-Apr-19 12:28N 35°01' E 136°48'0 0.0
2018-Apr-19 11:58N 35°01' E 136°48'0 0.0
2018-Apr-19 11:28N 35°01' E 136°48'0 0.0
2018-Apr-19 10:58N 35°01' E 136°48'0 0.0
2018-Apr-19 10:28N 35°01' E 136°48'0 0.0
2018-Apr-19 09:58N 35°01' E 136°48'0 0.0
2018-Apr-19 09:28N 35°01' E 136°48'0 0.0
2018-Apr-19 08:58N 35°01' E 136°48'0 0.0
2018-Apr-19 08:25N 35°01' E 136°48'0 0.0
2018-Apr-19 07:58N 35°01' E 136°48'0 0.0
2018-Apr-19 07:28N 35°01' E 136°48'0 0.0
2018-Apr-19 06:58N 35°01' E 136°48'0 0.0
2018-Apr-19 06:28N 35°01' E 136°48'0 0.0
2018-Apr-19 05:58N 35°01' E 136°48'0 0.0
2018-Apr-19 05:28N 35°01' E 136°48'0 0.0
2018-Apr-19 04:58N 35°01' E 136°48'0 0.0
2018-Apr-19 04:28N 35°01' E 136°48'0 0.0
2018-Apr-19 03:58N 35°01' E 136°48'0 0.0
2018-Apr-19 03:28N 35°01' E 136°48'0 0.0
2018-Apr-19 02:58N 35°01' E 136°48'0 0.0
2018-Apr-19 02:28N 35°01' E 136°48'0 0.0
2018-Apr-19 01:58N 35°01' E 136°48'0 0.0
2018-Apr-19 01:28N 35°01' E 136°48'0 0.0
2018-Apr-19 00:55N 35°01' E 136°48'0 0.0
2018-Apr-19 00:28N 35°01' E 136°48'0 0.0
2018-Apr-18 23:58N 35°01' E 136°48'0 0.1
2018-Apr-18 23:29N 35°01' E 136°48'2 3.4
2018-Apr-18 23:00N 34°60' E 136°47'510.4
2018-Apr-18 22:30N 34°55' E 136°47'917.6
2018-Apr-18 22:00N 34°46' E 136°48'917.6
2018-Apr-18 21:30N 34°39' E 136°54'815.8
2018-Apr-18 21:01N 34°33' E 137°01'816.0
2018-Apr-18 20:30N 34°25' E 137°01'917.6
2018-Apr-18 19:59N 34°16' E 136°59'1617.5
2018-Apr-18 19:05N 34°04' E 136°48'217.5
2018-Apr-18 19:00N 34°03' E 136°46'9716.7
2018-Apr-18 13:11N 33°19' E 135°02'1517.9
2018-Apr-18 12:20N 33°17' E 134°44'61516.4
2018-Apr-16 22:56N 31°05' E 122°55'2017.8
2018-Apr-16 21:48N 31°06' E 122°31'813.5
2018-Apr-16 21:14N 31°06' E 122°22'314.4
2018-Apr-16 21:00N 31°06' E 122°19'714.4
2018-Apr-16 20:31N 31°10' E 122°12'814.7
2018-Apr-16 19:59N 31°14' E 122°04'714.8
2018-Apr-16 19:29N 31°15' E 121°55'714.4
2018-Apr-16 19:00N 31°18' E 121°48'13 0.8
2018-Apr-16 04:06N 31°07' E 121°56'1 7.1
2018-Apr-16 04:00N 31°07' E 121°57'3 6.8
2018-Apr-16 03:30N 31°05' E 122°00'5 8.4
2018-Apr-16 02:58N 31°04' E 122°06'511.7
2018-Apr-16 02:30N 31°03' E 122°12'811.2
2018-Apr-16 01:47N 31°02' E 122°21'  
Track history (hours):
 
Tides and Currents Weather Stations Pressure Air Temp Water Temp Dewpoint Dewpoint Depression Visibility Wind Speed Wind Dir Waves Ship Positions

Mild Tune

Last reported at 2018-Apr-24 22:31 UTC. Time now 2018-Apr-25 22:01 UTC.
Position N 31°06' E 122°21'.

Length 147 m; draft 7.6 m.

Type: Cargo ship. MMSI: 477524300.

Date/timePositionNaut miles runAvg speedWind from/ knotsBaromVisibWave heightAir tempDewpointWater temp
2018-Apr-24 22:31N 31°06' E 122°21'114.5
2018-Apr-24 22:25N 31°06' E 122°19'512.7
2018-Apr-24 22:00N 31°09' E 122°14'711.8
2018-Apr-24 21:24N 31°13' E 122°07'410.7
2018-Apr-24 21:00N 31°14' E 122°03'611.3
2018-Apr-24 20:30N 31°15' E 121°56'611.9
2018-Apr-24 19:59N 31°17' E 121°49'3 0.2
2018-Apr-24 03:36N 31°18' E 121°46'212.3
2018-Apr-24 03:25N 31°17' E 121°49'410.8
2018-Apr-24 03:00N 31°16' E 121°54'611.9
2018-Apr-24 02:28N 31°15' E 122°01'710.6
2018-Apr-24 01:49N 31°12' E 122°09'8 6.5
2018-Apr-24 00:34N 31°07' E 122°16'3 6.3
2018-Apr-24 00:10N 31°06' E 122°19'  
2018-Apr-21 02:03N 32°47' E 133°14'4018.4
2018-Apr-20 23:53N 33°02' E 133°57'719.3
2018-Apr-20 23:30N 33°05' E 134°06'917.7
2018-Apr-20 23:00N 33°07' E 134°16'1116.6
2018-Apr-20 22:19N 33°12' E 134°28'516.6
2018-Apr-20 22:00N 33°13' E 134°35'816.8
2018-Apr-20 21:30N 33°14' E 134°44'917.2
2018-Apr-20 21:00N 33°16' E 134°54'917.1
2018-Apr-20 20:30N 33°17' E 135°05'1016.9
2018-Apr-20 19:53N 33°18' E 135°17'716.8
2018-Apr-20 19:27N 33°20' E 135°26'5417.0
2018-Apr-20 16:15N 33°45' E 136°23'718.3
2018-Apr-20 15:53N 33°50' E 136°29'1517.7
2018-Apr-20 15:00N 34°01' E 136°42'917.5
2018-Apr-20 14:30N 34°06' E 136°51'917.3
2018-Apr-20 14:00N 34°11' E 136°59'1017.1
2018-Apr-20 13:25N 34°16' E 137°09'817.3
2018-Apr-20 12:57N 34°19' E 137°18'1017.0
2018-Apr-20 12:21N 34°22' E 137°30'1316.8
2018-Apr-20 11:36N 34°26' E 137°45'317.2
2018-Apr-20 11:27N 34°26' E 137°48'917.0
2018-Apr-20 10:56N 34°28' E 137°59'716.6
2018-Apr-20 10:30N 34°29' E 138°07'815.7
2018-Apr-20 10:00N 34°32' E 138°16'816.5
2018-Apr-20 09:30N 34°39' E 138°20'816.7
2018-Apr-20 09:01N 34°47' E 138°25'816.9
2018-Apr-20 08:30N 34°54' E 138°30'815.1
2018-Apr-20 08:00N 35°01' E 138°33'2 3.7
2018-Apr-20 07:30N 35°02' E 138°30'0 0.0
2018-Apr-20 07:00N 35°02' E 138°30'0 0.0
2018-Apr-20 06:30N 35°02' E 138°30'0 0.0
2018-Apr-20 06:00N 35°02' E 138°30'0 0.0
2018-Apr-20 05:30N 35°02' E 138°30'0 0.0
2018-Apr-20 05:00N 35°02' E 138°30'0 0.0
2018-Apr-20 04:27N 35°02' E 138°30'0 0.0
2018-Apr-20 04:00N 35°02' E 138°30'0 0.0
2018-Apr-20 03:30N 35°02' E 138°30'1 1.1
2018-Apr-20 03:00N 35°02' E 138°31'3 7.0
2018-Apr-20 02:30N 34°59' E 138°34'816.9
2018-Apr-20 02:00N 34°52' E 138°29'917.2
2018-Apr-20 01:30N 34°44' E 138°24'917.0
2018-Apr-20 01:00N 34°36' E 138°20'915.9
2018-Apr-20 00:25N 34°31' E 138°10'717.4
2018-Apr-20 00:00N 34°31' E 138°02'917.8
2018-Apr-19 23:29N 34°31' E 137°50'1017.9
2018-Apr-19 22:56N 34°31' E 137°38'817.5
2018-Apr-19 22:30N 34°30' E 137°29'917.4
2018-Apr-19 21:59N 34°30' E 137°18'1316.6
2018-Apr-19 21:11N 34°31' E 137°02'812.9
2018-Apr-19 20:36N 34°37' E 136°56'215.3
2018-Apr-19 20:28N 34°38' E 136°54'613.7
2018-Apr-19 20:00N 34°43' E 136°49'611.4
2018-Apr-19 19:30N 34°48' E 136°46'612.8
2018-Apr-19 19:00N 34°54' E 136°46'510.6
2018-Apr-19 18:30N 34°59' E 136°47'2 4.1
2018-Apr-19 17:58N 35°01' E 136°48'0 0.1
2018-Apr-19 17:28N 35°01' E 136°48'0 0.0
2018-Apr-19 16:58N 35°01' E 136°48'0 0.0
2018-Apr-19 16:28N 35°01' E 136°48'0 0.0
2018-Apr-19 15:58N 35°01' E 136°48'0 0.0
2018-Apr-19 15:28N 35°01' E 136°48'0 0.0
2018-Apr-19 14:58N 35°01' E 136°48'0 0.0
2018-Apr-19 14:28N 35°01' E 136°48'0 0.0
2018-Apr-19 13:58N 35°01' E 136°48'0 0.0
2018-Apr-19 13:28N 35°01' E 136°48'0 0.0
2018-Apr-19 12:58N 35°01' E 136°48'0 0.0
2018-Apr-19 12:28N 35°01' E 136°48'0 0.0
2018-Apr-19 11:58N 35°01' E 136°48'0 0.0
2018-Apr-19 11:28N 35°01' E 136°48'0 0.0
2018-Apr-19 10:58N 35°01' E 136°48'0 0.0
2018-Apr-19 10:28N 35°01' E 136°48'0 0.0
2018-Apr-19 09:58N 35°01' E 136°48'0 0.0
2018-Apr-19 09:28N 35°01' E 136°48'0 0.0
2018-Apr-19 08:58N 35°01' E 136°48'0 0.0
2018-Apr-19 08:25N 35°01' E 136°48'0 0.0
2018-Apr-19 07:58N 35°01' E 136°48'0 0.0
2018-Apr-19 07:28N 35°01' E 136°48'0 0.0
2018-Apr-19 06:58N 35°01' E 136°48'0 0.0
2018-Apr-19 06:28N 35°01' E 136°48'0 0.0
2018-Apr-19 05:58N 35°01' E 136°48'0 0.0
2018-Apr-19 05:28N 35°01' E 136°48'0 0.0
2018-Apr-19 04:58N 35°01' E 136°48'0 0.0
2018-Apr-19 04:28N 35°01' E 136°48'0 0.0
2018-Apr-19 03:58N 35°01' E 136°48'0 0.0
2018-Apr-19 03:28N 35°01' E 136°48'0 0.0
2018-Apr-19 02:58N 35°01' E 136°48'0 0.0
2018-Apr-19 02:28N 35°01' E 136°48'0 0.0
2018-Apr-19 01:58N 35°01' E 136°48'0 0.0
2018-Apr-19 01:28N 35°01' E 136°48'0 0.0
2018-Apr-19 00:55N 35°01' E 136°48'0 0.0
2018-Apr-19 00:28N 35°01' E 136°48'0 0.0
2018-Apr-18 23:58N 35°01' E 136°48'0 0.1
2018-Apr-18 23:29N 35°01' E 136°48'2 3.4
2018-Apr-18 23:00N 34°60' E 136°47'510.4
2018-Apr-18 22:30N 34°55' E 136°47'917.6
2018-Apr-18 22:00N 34°46' E 136°48'917.6
2018-Apr-18 21:30N 34°39' E 136°54'815.8
2018-Apr-18 21:01N 34°33' E 137°01'816.0
2018-Apr-18 20:30N 34°25' E 137°01'917.6
2018-Apr-18 19:59N 34°16' E 136°59'1617.5
2018-Apr-18 19:05N 34°04' E 136°48'217.5
2018-Apr-18 19:00N 34°03' E 136°46'9716.7
2018-Apr-18 13:11N 33°19' E 135°02'1517.9
2018-Apr-18 12:20N 33°17' E 134°44'61516.4
2018-Apr-16 22:56N 31°05' E 122°55'2017.8
2018-Apr-16 21:48N 31°06' E 122°31'813.5
2018-Apr-16 21:14N 31°06' E 122°22'314.4
2018-Apr-16 21:00N 31°06' E 122°19'714.4
2018-Apr-16 20:31N 31°10' E 122°12'814.7
2018-Apr-16 19:59N 31°14' E 122°04'714.8
2018-Apr-16 19:29N 31°15' E 121°55'714.4
2018-Apr-16 19:00N 31°18' E 121°48'13 0.8
2018-Apr-16 04:06N 31°07' E 121°56'1 7.1
2018-Apr-16 04:00N 31°07' E 121°57'3 6.8
2018-Apr-16 03:30N 31°05' E 122°00'5 8.4
2018-Apr-16 02:58N 31°04' E 122°06'511.7
2018-Apr-16 02:30N 31°03' E 122°12'811.2
2018-Apr-16 01:47N 31°02' E 122°21'  

Dump ship's entire track history